createdAt,value
2017-01-04T00:00:49.004Z,24.96
2017-01-04T00:01:48.752Z,25
2017-01-04T00:02:48.814Z,24.96
2017-01-04T00:03:47.976Z,24.93
2017-01-04T00:04:48.384Z,24.98
2017-01-04T00:05:48.882Z,24.99
2017-01-04T00:06:48.742Z,24.9
2017-01-04T00:07:48.400Z,25
2017-01-04T00:08:48.062Z,24.95
2017-01-04T00:09:48.465Z,24.93
2017-01-04T00:10:49.170Z,25
2017-01-04T00:11:48.477Z,25.03
2017-01-04T00:12:48.436Z,24.91
2017-01-04T00:13:48.645Z,24.85
2017-01-04T00:14:48.503Z,24.88
2017-01-04T00:15:48.513Z,24.91
2017-01-04T00:16:48.914Z,24.96
2017-01-04T00:17:48.078Z,24.87
2017-01-04T00:18:48.482Z,24.98
2017-01-04T00:19:48.539Z,25.02
2017-01-04T00:20:49.339Z,24.95
2017-01-04T00:21:48.998Z,24.93
2017-01-04T00:22:49.957Z,24.96
2017-01-04T00:23:48.518Z,24.93
2017-01-04T00:24:49.121Z,24.91
2017-01-04T00:25:48.975Z,24.93
2017-01-04T00:26:48.591Z,24.85
2017-01-04T00:27:48.453Z,24.85
2017-01-04T00:28:48.952Z,24.93
2017-01-04T00:29:48.960Z,24.96
2017-01-04T00:30:48.570Z,24.88
2017-01-04T00:31:49.020Z,24.91
2017-01-04T00:32:49.042Z,24.88
2017-01-04T00:33:49.986Z,24.9
2017-01-04T00:34:48.500Z,24.93
2017-01-04T00:35:48.603Z,24.93
2017-01-04T00:36:48.611Z,24.85
2017-01-04T00:37:48.671Z,24.9
2017-01-04T00:38:48.626Z,24.91
2017-01-04T00:39:48.683Z,24.87
2017-01-04T00:40:49.087Z,24.83
2017-01-04T00:41:48.696Z,24.84
2017-01-04T00:42:48.258Z,24.87
2017-01-04T00:43:48.670Z,24.95
2017-01-04T00:44:49.771Z,24.88
2017-01-04T00:45:49.075Z,24.9
2017-01-04T00:46:49.084Z,24.85
2017-01-04T00:47:48.745Z,24.88
2017-01-04T00:48:49.895Z,24.91
2017-01-04T00:49:48.360Z,24.95
2017-01-04T00:50:49.160Z,24.87
2017-01-04T00:51:48.324Z,24.95
2017-01-04T00:52:49.127Z,24.83
2017-01-04T00:53:48.339Z,24.87
2017-01-04T00:54:48.501Z,24.91
2017-01-04T00:55:49.694Z,24.85
2017-01-04T00:56:48.756Z,24.85
2017-01-04T00:57:48.763Z,24.81
2017-01-04T00:58:49.167Z,24.9
2017-01-04T00:59:49.776Z,24.85
2017-01-04T01:00:48.837Z,24.9
2017-01-04T01:01:48.796Z,24.95
2017-01-04T01:02:49.295Z,24.85
2017-01-04T01:03:48.860Z,24.83
2017-01-04T01:04:49.262Z,24.85
2017-01-04T01:05:48.821Z,24.85
2017-01-04T01:06:49.284Z,24.88
2017-01-04T01:07:48.893Z,24.85
2017-01-04T01:08:48.495Z,24.93
2017-01-04T01:09:48.909Z,24.9
2017-01-04T01:10:49.756Z,24.83
2017-01-04T01:11:49.369Z,24.87
2017-01-04T01:12:48.921Z,24.83
2017-01-04T01:13:49.387Z,24.85
2017-01-04T01:14:48.887Z,24.9
2017-01-04T01:15:48.551Z,24.85
2017-01-04T01:16:49.363Z,24.84
2017-01-04T01:17:48.911Z,24.91
2017-01-04T01:18:48.618Z,24.81
2017-01-04T01:19:48.975Z,24.84
2017-01-04T01:20:48.979Z,24.85
2017-01-04T01:21:49.744Z,24.8
2017-01-04T01:22:49.244Z,24.8
2017-01-04T01:23:49.397Z,24.85
2017-01-04T01:24:49.010Z,24.84
2017-01-04T01:25:48.965Z,24.77
2017-01-04T01:26:48.683Z,24.84
2017-01-04T01:27:49.676Z,24.84
2017-01-04T01:28:48.642Z,24.81
2017-01-04T01:29:49.045Z,24.85
2017-01-04T01:30:49.154Z,24.84
2017-01-04T01:31:49.056Z,24.88
2017-01-04T01:32:49.725Z,24.83
2017-01-04T01:33:49.025Z,24.84
2017-01-04T01:34:49.081Z,24.88
2017-01-04T01:35:49.042Z,24.88
2017-01-04T01:36:49.154Z,24.85
2017-01-04T01:37:48.706Z,24.8
2017-01-04T01:38:48.663Z,24.8
2017-01-04T01:39:49.169Z,24.84
2017-01-04T01:40:49.571Z,24.87
2017-01-04T01:41:49.131Z,24.77
2017-01-04T01:42:49.532Z,24.81
2017-01-04T01:43:49.697Z,24.87
2017-01-04T01:44:49.500Z,24.84
2017-01-04T01:45:49.110Z,24.84
2017-01-04T01:46:49.519Z,24.91
2017-01-04T01:47:49.523Z,24.83
2017-01-04T01:48:49.577Z,24.69
2017-01-04T01:49:49.138Z,24.68
2017-01-04T01:50:48.756Z,24.73
2017-01-04T01:51:49.251Z,24.8
2017-01-04T01:52:48.829Z,24.71
2017-01-04T01:53:49.269Z,24.83
2017-01-04T01:54:49.831Z,24.88
2017-01-04T01:55:48.785Z,24.85
2017-01-04T01:56:48.792Z,24.81
2017-01-04T01:57:49.249Z,24.71
2017-01-04T01:58:49.601Z,24.73
2017-01-04T01:59:49.259Z,24.8
2017-01-04T02:00:49.318Z,24.81
2017-01-04T02:01:49.622Z,24.73
2017-01-04T02:02:49.335Z,24.83
2017-01-04T02:03:49.686Z,24.83
2017-01-04T02:04:49.249Z,24.77
2017-01-04T02:05:49.309Z,24.8
2017-01-04T02:06:49.311Z,24.69
2017-01-04T02:07:48.874Z,24.77
2017-01-04T02:08:49.277Z,24.77
2017-01-04T02:09:49.380Z,24.81
2017-01-04T02:10:49.343Z,24.8
2017-01-04T02:11:48.951Z,24.77
2017-01-04T02:12:49.701Z,24.8
2017-01-04T02:13:49.755Z,24.71
2017-01-04T02:14:49.766Z,24.77
2017-01-04T02:15:49.776Z,24.69
2017-01-04T02:16:49.485Z,24.68
2017-01-04T02:17:49.046Z,24.76
2017-01-04T02:18:50.817Z,24.76
2017-01-04T02:19:49.405Z,24.77
2017-01-04T02:20:48.966Z,24.73
2017-01-04T02:21:49.371Z,24.68
2017-01-04T02:22:49.425Z,24.8
2017-01-04T02:23:49.385Z,24.73
2017-01-04T02:24:49.439Z,24.87
2017-01-04T02:25:49.493Z,24.84
2017-01-04T02:26:49.916Z,24.78
2017-01-04T02:27:49.449Z,24.73
2017-01-04T02:28:49.468Z,24.77
2017-01-04T02:29:50.090Z,24.78
2017-01-04T02:30:49.497Z,24.77
2017-01-04T02:31:49.489Z,24.73
2017-01-04T02:32:49.589Z,24.65
2017-01-04T02:33:49.507Z,24.69
2017-01-04T02:34:49.494Z,24.76
2017-01-04T02:35:49.519Z,24.68
2017-01-04T02:36:50.023Z,24.68
2017-01-04T02:37:49.961Z,24.78
2017-01-04T02:38:51.080Z,24.76
2017-01-04T02:39:49.914Z,24.73
2017-01-04T02:40:49.505Z,24.73
2017-01-04T02:41:49.581Z,24.64
2017-01-04T02:42:49.964Z,24.67
2017-01-04T02:43:50.046Z,24.62
2017-01-04T02:44:49.630Z,24.67
2017-01-04T02:45:49.780Z,24.62
2017-01-04T02:46:49.969Z,24.65
2017-01-04T02:47:49.998Z,24.64
2017-01-04T02:48:49.665Z,24.71
2017-01-04T02:49:49.964Z,24.69
2017-01-04T02:50:50.071Z,24.58
2017-01-04T02:51:50.032Z,24.61
2017-01-04T02:52:51.081Z,24.61
2017-01-04T02:53:49.275Z,24.58
2017-01-04T02:54:51.235Z,24.61
2017-01-04T02:55:50.008Z,24.68
2017-01-04T02:56:49.283Z,24.67
2017-01-04T02:57:49.690Z,24.65
2017-01-04T02:58:50.030Z,24.68
2017-01-04T02:59:49.770Z,24.67
2017-01-04T03:00:50.042Z,24.65
2017-01-04T03:01:50.310Z,24.64
2017-01-04T03:02:50.186Z,24.62
2017-01-04T03:03:50.576Z,24.68
2017-01-04T03:04:49.874Z,24.64
2017-01-04T03:05:49.734Z,24.62
2017-01-04T03:06:49.822Z,24.73
2017-01-04T03:07:50.091Z,24.68
2017-01-04T03:08:50.292Z,24.68
2017-01-04T03:09:49.789Z,24.65
2017-01-04T03:10:50.262Z,24.67
2017-01-04T03:11:49.862Z,24.64
2017-01-04T03:12:49.389Z,24.64
2017-01-04T03:13:50.262Z,24.69
2017-01-04T03:14:50.191Z,24.65
2017-01-04T03:15:49.849Z,24.57
2017-01-04T03:16:49.814Z,24.57
2017-01-04T03:17:51.691Z,24.52
2017-01-04T03:18:49.894Z,24.52
2017-01-04T03:19:49.839Z,24.57
2017-01-04T03:20:49.940Z,24.53
2017-01-04T03:21:49.847Z,24.61
2017-01-04T03:22:50.341Z,24.5
2017-01-04T03:23:50.209Z,24.6
2017-01-04T03:24:50.627Z,24.65
2017-01-04T03:25:49.649Z,24.65
2017-01-04T03:26:51.049Z,24.61
2017-01-04T03:27:50.300Z,24.62
2017-01-04T03:28:50.289Z,24.6
2017-01-04T03:29:49.888Z,24.67
2017-01-04T03:30:49.891Z,24.69
2017-01-04T03:31:51.392Z,24.53
2017-01-04T03:32:49.678Z,24.58
2017-01-04T03:33:49.850Z,24.55
2017-01-04T03:34:49.630Z,24.65
2017-01-04T03:35:50.297Z,24.58
2017-01-04T03:36:49.953Z,24.52
2017-01-04T03:37:49.962Z,24.62
2017-01-04T03:38:50.060Z,24.53
2017-01-04T03:39:49.550Z,24.55
2017-01-04T03:40:50.528Z,24.6
2017-01-04T03:41:50.061Z,24.64
2017-01-04T03:42:49.984Z,24.55
2017-01-04T03:43:50.378Z,24.62
2017-01-04T03:44:50.657Z,24.57
2017-01-04T03:45:50.078Z,24.57
2017-01-04T03:46:50.158Z,24.67
2017-01-04T03:47:50.488Z,24.58
2017-01-04T03:48:50.505Z,24.55
2017-01-04T03:49:49.672Z,24.61
2017-01-04T03:50:50.657Z,24.53
2017-01-04T03:51:49.616Z,24.55
2017-01-04T03:52:50.538Z,24.5
2017-01-04T03:53:50.520Z,24.53
2017-01-04T03:54:50.624Z,24.55
2017-01-04T03:55:49.777Z,24.61
2017-01-04T03:56:50.560Z,24.62
2017-01-04T03:57:50.164Z,24.65
2017-01-04T03:58:50.608Z,24.6
2017-01-04T03:59:50.184Z,24.53
2017-01-04T04:00:49.729Z,24.58
2017-01-04T04:01:50.169Z,24.53
2017-01-04T04:02:50.605Z,24.52
2017-01-04T04:03:50.635Z,24.61
2017-01-04T04:04:50.272Z,24.57
2017-01-04T04:05:50.166Z,24.47
2017-01-04T04:06:50.257Z,24.49
2017-01-04T04:07:50.221Z,24.53
2017-01-04T04:08:50.387Z,24.57
2017-01-04T04:09:50.242Z,24.58
2017-01-04T04:10:50.233Z,24.53
2017-01-04T04:11:50.372Z,24.58
2017-01-04T04:12:50.627Z,24.5
2017-01-04T04:13:51.368Z,24.49
2017-01-04T04:14:50.674Z,24.5
2017-01-04T04:15:50.276Z,24.6
2017-01-04T04:16:50.289Z,24.52
2017-01-04T04:17:50.225Z,24.52
2017-01-04T04:18:50.714Z,24.57
2017-01-04T04:19:49.864Z,24.58
2017-01-04T04:20:50.222Z,24.49
2017-01-04T04:21:50.361Z,24.46
2017-01-04T04:22:49.998Z,24.5
2017-01-04T04:23:50.300Z,24.53
2017-01-04T04:24:50.832Z,24.45
2017-01-04T04:25:50.818Z,24.46
2017-01-04T04:26:50.475Z,24.52
2017-01-04T04:27:50.860Z,24.57
2017-01-04T04:28:50.901Z,24.49
2017-01-04T04:29:50.451Z,24.5
2017-01-04T04:30:50.417Z,24.45
2017-01-04T04:31:50.830Z,24.49
2017-01-04T04:32:51.180Z,24.46
2017-01-04T04:33:50.884Z,24.46
2017-01-04T04:34:51.043Z,24.53
2017-01-04T04:35:50.895Z,24.52
2017-01-04T04:36:50.747Z,24.53
2017-01-04T04:37:49.987Z,24.49
2017-01-04T04:38:50.387Z,24.45
2017-01-04T04:39:50.526Z,24.39
2017-01-04T04:40:50.906Z,24.42
2017-01-04T04:41:50.978Z,24.43
2017-01-04T04:42:50.091Z,24.43
2017-01-04T04:43:50.437Z,24.47
2017-01-04T04:44:50.555Z,24.52
2017-01-04T04:45:50.908Z,24.49
2017-01-04T04:46:51.899Z,24.47
2017-01-04T04:47:50.947Z,24.47
2017-01-04T04:48:50.532Z,24.5
2017-01-04T04:49:50.980Z,24.45
2017-01-04T04:50:50.487Z,24.4
2017-01-04T04:51:51.383Z,24.43
2017-01-04T04:52:50.527Z,24.45
2017-01-04T04:53:51.102Z,24.42
2017-01-04T04:54:50.952Z,24.49
2017-01-04T04:55:50.530Z,24.32
2017-01-04T04:56:50.540Z,24.4
2017-01-04T04:57:50.226Z,24.42
2017-01-04T04:59:05.014Z,24.42
2017-01-04T04:59:50.731Z,24.32
2017-01-04T05:00:51.063Z,24.39
2017-01-04T05:01:50.743Z,24.35
2017-01-04T05:02:50.545Z,24.39
2017-01-04T05:03:51.752Z,24.4
2017-01-04T05:04:50.996Z,24.43
2017-01-04T05:05:52.256Z,24.42
2017-01-04T05:06:50.758Z,24.37
2017-01-04T05:07:51.208Z,24.35
2017-01-04T05:08:50.310Z,24.37
2017-01-04T05:09:50.665Z,24.43
2017-01-04T05:10:50.920Z,24.5
2017-01-04T05:11:51.075Z,24.39
2017-01-04T05:12:50.385Z,24.39
2017-01-04T05:13:50.742Z,24.47
2017-01-04T05:14:51.094Z,24.5
2017-01-04T05:15:50.817Z,24.5
2017-01-04T05:16:51.090Z,24.43
2017-01-04T05:17:50.782Z,24.35
2017-01-04T05:18:51.214Z,24.43
2017-01-04T05:19:50.807Z,24.4
2017-01-04T05:20:51.132Z,24.45
2017-01-04T05:21:51.159Z,24.47
2017-01-04T05:22:51.226Z,24.4
2017-01-04T05:23:51.282Z,24.47
2017-01-04T05:24:51.268Z,24.45
2017-01-04T05:25:51.226Z,24.39
2017-01-04T05:26:50.881Z,24.42
2017-01-04T05:27:51.942Z,24.35
2017-01-04T05:28:51.162Z,24.32
2017-01-04T05:29:50.489Z,24.42
2017-01-04T05:30:50.911Z,24.32
2017-01-04T05:31:50.885Z,24.34
2017-01-04T05:32:51.960Z,24.37
2017-01-04T05:33:51.280Z,24.45
2017-01-04T05:34:52.067Z,24.35
2017-01-04T05:35:50.403Z,24.32
2017-01-04T05:36:50.922Z,24.34
2017-01-04T05:37:50.833Z,24.32
2017-01-04T05:38:50.873Z,24.31
2017-01-04T05:39:51.281Z,24.35
2017-01-04T05:40:51.159Z,24.3
2017-01-04T05:41:51.299Z,24.34
2017-01-04T05:42:51.027Z,24.27
2017-01-04T05:43:50.645Z,24.39
2017-01-04T05:44:51.128Z,24.31
2017-01-04T05:45:51.390Z,24.34
2017-01-04T05:46:50.924Z,24.4
2017-01-04T05:47:50.498Z,24.37
2017-01-04T05:48:50.509Z,24.39
2017-01-04T05:49:50.942Z,24.37
2017-01-04T05:50:51.077Z,24.42
2017-01-04T05:51:50.916Z,24.35
2017-01-04T05:52:50.983Z,24.37
2017-01-04T05:53:50.963Z,24.42
2017-01-04T05:54:51.694Z,24.39
2017-01-04T05:55:51.080Z,24.43
2017-01-04T05:56:51.404Z,24.4
2017-01-04T05:57:51.091Z,24.43
2017-01-04T05:58:51.351Z,24.39
2017-01-04T05:59:53.355Z,24.37
2017-01-04T06:00:50.657Z,24.32
2017-01-04T06:01:51.022Z,24.39
2017-01-04T06:02:51.578Z,24.5
2017-01-04T06:03:51.165Z,24.52
2017-01-04T06:04:51.170Z,24.5
2017-01-04T06:05:51.030Z,24.42
2017-01-04T06:06:51.110Z,24.43
2017-01-04T06:07:51.098Z,24.4
2017-01-04T06:08:51.191Z,24.43
2017-01-04T06:09:51.100Z,24.35
2017-01-04T06:10:51.583Z,24.39
2017-01-04T06:11:51.648Z,24.37
2017-01-04T06:12:51.028Z,24.3
2017-01-04T06:13:51.637Z,24.35
2017-01-04T06:14:51.598Z,24.32
2017-01-04T06:15:51.370Z,24.37
2017-01-04T06:16:51.206Z,24.32
2017-01-04T06:17:51.556Z,24.34
2017-01-04T06:18:51.177Z,24.43
2017-01-04T06:19:52.573Z,24.35
2017-01-04T06:20:51.246Z,24.39
2017-01-04T06:21:51.544Z,24.49
2017-01-04T06:22:51.711Z,24.39
2017-01-04T06:23:51.626Z,24.34
2017-01-04T06:24:52.124Z,24.35
2017-01-04T06:25:51.305Z,24.32
2017-01-04T06:26:50.822Z,24.39
2017-01-04T06:27:51.199Z,24.35
2017-01-04T06:28:50.756Z,24.3
2017-01-04T06:29:51.582Z,24.39
2017-01-04T06:30:51.530Z,24.35
2017-01-04T06:31:50.820Z,24.4
2017-01-04T06:32:51.361Z,24.46
2017-01-04T06:33:51.480Z,24.35
2017-01-04T06:34:51.799Z,24.37
2017-01-04T06:35:51.820Z,24.3
2017-01-04T06:36:51.799Z,24.42
2017-01-04T06:37:52.945Z,24.39
2017-01-04T06:38:51.250Z,24.42
2017-01-04T06:39:51.785Z,24.35
2017-01-04T06:40:50.913Z,24.32
2017-01-04T06:41:51.770Z,24.32
2017-01-04T06:42:51.452Z,24.25
2017-01-04T06:43:51.298Z,24.32
2017-01-04T06:44:51.696Z,24.31
2017-01-04T06:45:51.938Z,24.25
2017-01-04T06:46:51.777Z,24.3
2017-01-04T06:47:51.422Z,24.34
2017-01-04T06:48:51.330Z,24.4
2017-01-04T06:49:51.480Z,24.32
2017-01-04T06:50:52.227Z,24.31
2017-01-04T06:51:51.944Z,24.3
2017-01-04T06:52:51.945Z,24.35
2017-01-04T06:53:52.136Z,24.3
2017-01-04T06:54:51.531Z,24.37
2017-01-04T06:55:51.404Z,24.3
2017-01-04T06:56:51.492Z,24.34
2017-01-04T06:57:51.169Z,24.32
2017-01-04T06:58:53.094Z,24.35
2017-01-04T06:59:51.795Z,24.24
2017-01-04T07:00:51.852Z,24.24
2017-01-04T07:01:51.902Z,24.3
2017-01-04T07:02:51.049Z,24.3
2017-01-04T07:03:51.989Z,24.3
2017-01-04T07:04:51.519Z,24.25
2017-01-04T07:05:51.569Z,24.21
2017-01-04T07:06:53.722Z,24.3
2017-01-04T07:07:51.576Z,24.28
2017-01-04T07:08:51.555Z,24.34
2017-01-04T07:09:51.828Z,24.28
2017-01-04T07:10:51.813Z,24.24
2017-01-04T07:11:51.584Z,24.24
2017-01-04T07:12:51.910Z,24.22
2017-01-04T07:13:52.017Z,24.21
2017-01-04T07:14:53.439Z,24.32
2017-01-04T07:15:51.103Z,24.32
2017-01-04T07:16:51.740Z,24.31
2017-01-04T07:17:51.677Z,24.31
2017-01-04T07:18:51.223Z,24.28
2017-01-04T07:19:52.351Z,24.21
2017-01-04T07:20:51.569Z,24.24
2017-01-04T07:21:52.032Z,24.21
2017-01-04T07:22:52.159Z,24.28
2017-01-04T07:23:51.694Z,24.2
2017-01-04T07:24:52.189Z,24.22
2017-01-04T07:25:52.124Z,24.22
2017-01-04T07:26:51.986Z,24.28
2017-01-04T07:27:52.163Z,24.34
2017-01-04T07:28:51.202Z,24.5
2017-01-04T07:29:52.053Z,24.58
2017-01-04T07:30:53.524Z,24.68
2017-01-04T07:31:52.080Z,24.85
2017-01-04T07:32:51.742Z,24.83
2017-01-04T07:33:51.687Z,25
2017-01-04T07:34:52.177Z,25.05
2017-01-04T07:35:51.820Z,25.17
2017-01-04T07:36:52.071Z,25.33
2017-01-04T07:37:51.325Z,25.35
2017-01-04T07:38:51.282Z,25.54
2017-01-04T07:39:51.456Z,25.64
2017-01-04T07:40:51.338Z,25.65
2017-01-04T07:41:52.805Z,25.73
2017-01-04T07:42:52.230Z,25.85
2017-01-04T07:43:52.118Z,25.91
2017-01-04T07:44:52.160Z,25.99
2017-01-04T07:45:51.726Z,26.07
2017-01-04T07:46:52.082Z,26.1
2017-01-04T07:47:51.365Z,26.18
2017-01-04T07:48:52.103Z,26.17
2017-01-04T07:49:51.900Z,26.26
2017-01-04T07:50:51.892Z,26.33
2017-01-04T07:51:52.290Z,26.43
2017-01-04T07:52:52.263Z,26.47
2017-01-04T07:53:51.771Z,26.39
2017-01-04T07:54:52.190Z,26.37
2017-01-04T07:55:52.212Z,26.48
2017-01-04T07:56:52.435Z,26.47
2017-01-04T07:57:51.932Z,26.54
2017-01-04T07:58:52.386Z,26.55
2017-01-04T07:59:51.942Z,26.54
2017-01-04T08:00:52.290Z,26.58
2017-01-04T08:01:52.581Z,26.6
2017-01-04T08:02:52.060Z,26.62
2017-01-04T08:03:51.845Z,26.69
2017-01-04T08:04:52.252Z,26.72
2017-01-04T08:05:51.980Z,26.69
2017-01-04T08:06:52.271Z,26.67
2017-01-04T08:07:51.842Z,26.75
2017-01-04T08:08:52.380Z,26.65
2017-01-04T08:09:52.299Z,26.73
2017-01-04T08:10:51.646Z,26.7
2017-01-04T08:11:51.867Z,26.67
2017-01-04T08:12:51.883Z,26.69
2017-01-04T08:13:52.408Z,26.67
2017-01-04T08:14:52.020Z,26.7
2017-01-04T08:15:51.662Z,26.76
2017-01-04T08:16:51.895Z,26.77
2017-01-04T08:17:52.842Z,26.84
2017-01-04T08:18:52.487Z,26.84
2017-01-04T08:19:52.472Z,26.81
2017-01-04T08:20:52.503Z,26.8
2017-01-04T08:21:52.138Z,26.81
2017-01-04T08:22:51.578Z,26.75
2017-01-04T08:23:52.567Z,26.69
2017-01-04T08:24:52.852Z,26.67
2017-01-04T08:25:52.551Z,26.7
2017-01-04T08:26:52.016Z,26.7
2017-01-04T08:27:52.648Z,26.66
2017-01-04T08:28:52.003Z,26.65
2017-01-04T08:29:51.598Z,26.73
2017-01-04T08:30:52.017Z,26.66
2017-01-04T08:31:52.075Z,26.69
2017-01-04T08:32:52.504Z,26.66
2017-01-04T08:33:52.270Z,26.67
2017-01-04T08:34:52.312Z,26.7
2017-01-04T08:35:52.137Z,26.75
2017-01-04T08:36:52.228Z,26.69
2017-01-04T08:37:53.332Z,26.81
2017-01-04T08:38:52.426Z,26.72
2017-01-04T08:39:52.157Z,26.73
2017-01-04T08:40:52.778Z,26.63
2017-01-04T08:41:52.189Z,26.7
2017-01-04T08:42:52.207Z,26.81
2017-01-04T08:43:52.124Z,26.76
2017-01-04T08:44:52.587Z,26.75
2017-01-04T08:45:51.886Z,26.69
2017-01-04T08:46:52.652Z,26.85
2017-01-04T08:47:52.597Z,26.73
2017-01-04T08:48:52.179Z,26.67
2017-01-04T08:49:52.208Z,26.65
2017-01-04T08:50:52.382Z,26.69
2017-01-04T08:51:52.577Z,26.73
2017-01-04T08:52:51.972Z,26.57
2017-01-04T08:53:51.830Z,26.66
2017-01-04T08:54:52.465Z,26.65
2017-01-04T08:55:52.929Z,26.69
2017-01-04T08:56:52.673Z,26.7
2017-01-04T08:57:52.346Z,26.65
2017-01-04T08:58:52.385Z,26.6
2017-01-04T08:59:52.311Z,26.72
2017-01-04T09:00:52.785Z,26.67
2017-01-04T09:01:51.956Z,26.7
2017-01-04T09:02:51.886Z,26.65
2017-01-04T09:03:52.674Z,26.84
2017-01-04T09:04:52.450Z,26.8
2017-01-04T09:05:52.681Z,26.82
2017-01-04T09:06:52.730Z,26.73
2017-01-04T09:07:52.420Z,26.81
2017-01-04T09:08:52.979Z,26.84
2017-01-04T09:09:52.370Z,26.82
2017-01-04T09:10:52.540Z,26.73
2017-01-04T09:11:52.584Z,26.67
2017-01-04T09:12:51.907Z,26.77
2017-01-04T09:13:52.534Z,26.81
2017-01-04T09:14:52.562Z,26.81
2017-01-04T09:15:52.479Z,26.81
2017-01-04T09:16:52.441Z,26.77
2017-01-04T09:17:52.480Z,26.77
2017-01-04T09:18:52.048Z,26.8
2017-01-04T09:19:52.412Z,26.85
2017-01-04T09:20:52.211Z,26.81
2017-01-04T09:21:52.869Z,26.92
2017-01-04T09:22:52.556Z,26.82
2017-01-04T09:23:52.604Z,26.89
2017-01-04T09:24:52.884Z,26.85
2017-01-04T09:25:52.859Z,26.87
2017-01-04T09:26:52.984Z,26.8
2017-01-04T09:27:52.610Z,26.84
2017-01-04T09:28:52.173Z,26.84
2017-01-04T09:29:52.220Z,26.84
2017-01-04T09:30:53.413Z,26.87
2017-01-04T09:31:53.912Z,26.88
2017-01-04T09:32:52.707Z,26.88
2017-01-04T09:33:52.654Z,26.85
2017-01-04T09:34:52.988Z,26.84
2017-01-04T09:35:53.161Z,26.87
2017-01-04T09:36:52.287Z,26.85
2017-01-04T09:37:52.907Z,26.85
2017-01-04T09:38:53.023Z,26.88
2017-01-04T09:39:53.042Z,26.91
2017-01-04T09:40:52.797Z,26.92
2017-01-04T09:41:53.173Z,26.94
2017-01-04T09:42:52.862Z,27.02
2017-01-04T09:43:52.213Z,27.03
2017-01-04T09:44:52.803Z,27.1
2017-01-04T09:45:53.148Z,27.06
2017-01-04T09:46:52.300Z,27.07
2017-01-04T09:47:52.601Z,27.19
2017-01-04T09:48:53.123Z,27.14
2017-01-04T09:49:53.089Z,26.92
2017-01-04T09:50:52.695Z,26.81
2017-01-04T09:51:53.169Z,26.82
2017-01-04T09:52:52.457Z,26.73
2017-01-04T09:53:52.700Z,26.81
2017-01-04T09:54:52.848Z,26.69
2017-01-04T09:55:52.821Z,26.65
2017-01-04T09:56:52.426Z,26.7
2017-01-04T09:57:52.673Z,26.69
2017-01-04T09:58:52.412Z,26.72
2017-01-04T09:59:52.412Z,26.66
2017-01-04T10:00:53.312Z,26.63
2017-01-04T10:01:53.432Z,26.69
2017-01-04T10:02:52.942Z,26.67
2017-01-04T10:03:53.286Z,26.65
2017-01-04T10:04:53.009Z,26.66
2017-01-04T10:05:52.788Z,26.67
2017-01-04T10:06:53.412Z,26.66
2017-01-04T10:07:53.001Z,26.7
2017-01-04T10:08:53.427Z,26.72
2017-01-04T10:09:52.909Z,26.72
2017-01-04T10:10:52.987Z,26.7
2017-01-04T10:11:52.628Z,26.66
2017-01-04T10:12:52.790Z,26.66
2017-01-04T10:13:53.067Z,26.66
2017-01-04T10:14:52.897Z,26.7
2017-01-04T10:15:53.336Z,26.69
2017-01-04T10:16:52.526Z,26.7
2017-01-04T10:17:52.984Z,26.73
2017-01-04T10:18:52.887Z,26.81
2017-01-04T10:19:52.996Z,26.85
2017-01-04T10:20:53.520Z,26.97
2017-01-04T10:21:53.020Z,26.97
2017-01-04T10:22:52.970Z,27.07
2017-01-04T10:23:53.323Z,27.04
2017-01-04T10:24:53.228Z,27.18
2017-01-04T10:25:53.453Z,27.1
2017-01-04T10:26:53.605Z,27.19
2017-01-04T10:27:53.424Z,27.12
2017-01-04T10:28:52.919Z,27.12
2017-01-04T10:29:53.002Z,27.25
2017-01-04T10:30:52.903Z,27.18
2017-01-04T10:31:53.046Z,27.28
2017-01-04T10:32:53.132Z,27.24
2017-01-04T10:33:53.212Z,27.28
2017-01-04T10:34:52.620Z,27.25
2017-01-04T10:35:53.796Z,27.24
2017-01-04T10:36:54.120Z,27.24
2017-01-04T10:37:53.746Z,27.32
2017-01-04T10:38:53.407Z,27.31
2017-01-04T10:39:53.169Z,27.24
2017-01-04T10:40:52.823Z,27.31
2017-01-04T10:41:53.747Z,27.28
2017-01-04T10:42:54.259Z,27.24
2017-01-04T10:43:53.903Z,27.27
2017-01-04T10:44:53.288Z,27.13
2017-01-04T10:45:53.553Z,27.25
2017-01-04T10:46:53.521Z,27.25
2017-01-04T10:47:53.137Z,27.12
2017-01-04T10:48:53.708Z,27.1
2017-01-04T10:49:53.511Z,27.13
2017-01-04T10:50:52.754Z,27.14
2017-01-04T10:51:53.348Z,27.12
2017-01-04T10:52:53.653Z,27.12
2017-01-04T10:53:52.777Z,27.07
2017-01-04T10:54:53.526Z,27.07
2017-01-04T10:55:53.861Z,27.12
2017-01-04T10:56:52.752Z,27.13
2017-01-04T10:57:52.861Z,27.06
2017-01-04T10:58:53.826Z,27.09
2017-01-04T10:59:53.586Z,27.12
2017-01-04T11:00:54.127Z,27.03
2017-01-04T11:01:53.734Z,27.03
2017-01-04T11:02:53.306Z,27.03
2017-01-04T11:03:52.908Z,27.03
2017-01-04T11:04:53.718Z,27.09
2017-01-04T11:05:53.271Z,27.07
2017-01-04T11:06:53.276Z,27.06
2017-01-04T11:07:54.055Z,27.1
2017-01-04T11:08:52.928Z,27.06
2017-01-04T11:09:53.357Z,27.02
2017-01-04T11:10:54.020Z,27
2017-01-04T11:11:53.379Z,27.06
2017-01-04T11:12:53.758Z,27.07
2017-01-04T11:13:53.441Z,26.91
2017-01-04T11:14:53.294Z,26.81
2017-01-04T11:15:53.347Z,26.97
2017-01-04T11:16:53.707Z,26.94
2017-01-04T11:17:53.682Z,26.89
2017-01-04T11:18:53.125Z,26.88
2017-01-04T11:19:53.900Z,26.92
2017-01-04T11:20:53.426Z,26.88
2017-01-04T11:21:53.967Z,26.92
2017-01-04T11:22:53.961Z,26.89
2017-01-04T11:23:53.854Z,27.03
2017-01-04T11:24:53.578Z,27.03
2017-01-04T11:25:53.874Z,26.92
2017-01-04T11:26:53.204Z,26.91
2017-01-04T11:27:53.496Z,26.97
2017-01-04T11:28:54.005Z,27
2017-01-04T11:29:53.158Z,26.99
2017-01-04T11:30:53.867Z,26.92
2017-01-04T11:31:53.536Z,26.94
2017-01-04T11:32:54.097Z,26.92
2017-01-04T11:33:53.658Z,26.82
2017-01-04T11:34:53.858Z,27.03
2017-01-04T11:35:53.659Z,26.95
2017-01-04T11:36:53.617Z,27.04
2017-01-04T11:37:53.960Z,27.03
2017-01-04T11:38:53.519Z,26.95
2017-01-04T11:39:53.568Z,27.03
2017-01-04T11:40:53.648Z,26.94
2017-01-04T11:41:54.018Z,27.03
2017-01-04T11:42:54.067Z,26.99
2017-01-04T11:43:53.301Z,26.94
2017-01-04T11:44:53.565Z,26.91
2017-01-04T11:45:54.191Z,26.97
2017-01-04T11:46:53.644Z,26.92
2017-01-04T11:47:54.409Z,27
2017-01-04T11:48:53.252Z,27.07
2017-01-04T11:49:54.124Z,27.04
2017-01-04T11:50:53.784Z,27.09
2017-01-04T11:51:54.036Z,27.03
2017-01-04T11:52:53.646Z,27.02
2017-01-04T11:53:53.752Z,27.04
2017-01-04T11:54:53.661Z,26.99
2017-01-04T11:55:53.422Z,27.06
2017-01-04T11:56:54.121Z,27.04
2017-01-04T11:57:54.046Z,27.03
2017-01-04T11:58:54.097Z,27.09
2017-01-04T11:59:53.713Z,27.12
2017-01-04T12:00:53.422Z,27.06
2017-01-04T12:01:53.716Z,27.03
2017-01-04T12:02:53.889Z,27
2017-01-04T12:03:54.285Z,27.07
2017-01-04T12:04:53.294Z,27.12
2017-01-04T12:05:53.436Z,27.07
2017-01-04T12:06:53.826Z,27.13
2017-01-04T12:07:53.779Z,27.1
2017-01-04T12:08:54.277Z,27.07
2017-01-04T12:09:53.730Z,27.03
2017-01-04T12:10:53.512Z,27.09
2017-01-04T12:11:54.144Z,27.07
2017-01-04T12:12:54.316Z,27.06
2017-01-04T12:13:54.054Z,27.06
2017-01-04T12:14:53.823Z,27.07
2017-01-04T12:15:54.380Z,27.09
2017-01-04T12:16:53.445Z,27.07
2017-01-04T12:17:53.850Z,27.12
2017-01-04T12:18:54.304Z,27.09
2017-01-04T12:19:54.082Z,26.97
2017-01-04T12:20:54.022Z,26.92
2017-01-04T12:21:54.055Z,26.99
2017-01-04T12:22:53.444Z,27.03
2017-01-04T12:23:54.324Z,27.06
2017-01-04T12:24:54.421Z,26.95
2017-01-04T12:25:53.914Z,26.97
2017-01-04T12:26:53.974Z,26.88
2017-01-04T12:27:54.290Z,26.89
2017-01-04T12:28:53.989Z,26.91
2017-01-04T12:29:54.256Z,26.99
2017-01-04T12:30:54.150Z,26.92
2017-01-04T12:31:53.517Z,27.07
2017-01-04T12:32:53.923Z,27
2017-01-04T12:33:53.979Z,27.04
2017-01-04T12:34:54.390Z,27.24
2017-01-04T12:35:53.598Z,27.06
2017-01-04T12:36:54.004Z,27.14
2017-01-04T12:37:54.013Z,27.09
2017-01-04T12:38:54.420Z,27.17
2017-01-04T12:39:54.376Z,27.25
2017-01-04T12:40:54.443Z,27.19
2017-01-04T12:41:53.650Z,27.14
2017-01-04T12:42:54.457Z,27.1
2017-01-04T12:43:53.620Z,27.13
2017-01-04T12:44:54.024Z,27.07
2017-01-04T12:45:54.036Z,27.21
2017-01-04T12:46:54.451Z,27.22
2017-01-04T12:47:54.103Z,27.06
2017-01-04T12:48:54.059Z,27.13
2017-01-04T12:49:54.114Z,27.09
2017-01-04T12:50:54.466Z,27.06
2017-01-04T12:51:54.079Z,27.02
2017-01-04T12:52:54.090Z,27.04
2017-01-04T12:53:54.148Z,27.13
2017-01-04T12:54:54.256Z,27.12
2017-01-04T12:55:54.117Z,27.07
2017-01-04T12:56:54.568Z,26.95